Pagrindinis puslapis
METAR-TAF:

METAR-TAF

Oro uostai :

Singapūras, Singapūras

platuma: 01-22N, ilguma: 103-59E, Aukštis: 5 m

Dabartinis oras

Ataskaita buvo paskelbta 14 minutes, ne 21:30 UTC
Vėjas 7 kt iš Pietryčių, svyruoja nuo Rytų ir Pietų/Pietryčių
Temperatūra 28°C
Drėgmė 84%
Slėgis 1011 hPa
Matomumas: 4500 m
Mažai debesys ne aukštis 1700 ft
Su prošvaistėmis ne aukštis 30000 ft
migla

METAR: WSSS 182130Z 13007KT 090V150 4500 HZ FEW017 BKN300 28/25 Q1011 NOSIG

Laikas: 05:44 (21:44 UTC)

Prognozė

Ataskaita buvo paskelbta 4 valandos ir 44 minutes, ne 17:00 UTC
Prognozė galioja nuo 18 metu 18 UTC su 20 metu 00 UTC
Vėjas 7 kt iš Pietryčių
Matomumas: 2500 m
Mažai debesys ne aukštis 1500 ft
Išsisklaidę debesys ne aukštis 2000 ft
migla
Laikinai
nuo 18 metu 21 UTC su 19 metu 02 UTC
Matomumas: 1400 m

TAF: WSSS 181700Z 1818/2000 14007KT 2500 HZ FEW015 SCT020 TEMPO 1821/1902 1400

Orai ataskaitas ir orų prognozės (METAR, TAF).

turimą stotys yra geltonos ir raudonos taškus žemėlapyje.

Perkelti pele per norėdami pamatyti stoties vardą.

Tada spustelėkite, norėdami matyti oro stebėjimo ir prognozės.

Norėdami pakeisti žemėlapį: spustelėkite ant žalios mygtukų su juodo kryžiaus žemyn,; žalią mygtuką su brūkšneliu, jei norite nutolinti; arba žalių rodyklių gretimoms žemėlapius.


METAR-TAF: